Time;durP1;ratioP1;P1;durP2;ratioP2;P2;SDS_P1;SDS_P2;PMS_P1;PMS_P2;Temp;Humidity;BMP_temperature;BMP_pressure;BME280_temperature;BME280_humidity;BME280_pressure;Samples;Min_cycle;Max_cycle;Signal;HPM_P1;HPM_P2
2022/01/20 00:01:40;;;;;;;4.67;3.70;;;;;;;4.65;62.04;96121.66;5020492;28;20223;-81
2022/01/20 00:04:15;;;;;;;4.17;3.70;;;;;;;4.51;62.35;96119.44;5022546;28;20210;-81
2022/01/20 00:07:25;;;;;;;3.90;3.30;;;;;;;4.59;62.25;96124.72;5022111;28;20222;-81
2022/01/20 00:26:25;;;;;;;4.60;3.40;;;;;;;4.74;62.29;96133.66;5020481;28;20361;-81
2022/01/20 00:28:56;;;;;;;3.90;3.50;;;;;;;4.83;61.86;96125.22;5021097;28;20254;-81
2022/01/20 00:31:34;;;;;;;3.87;2.93;;;;;;;4.84;61.81;96121.75;5021270;28;20226;-82
2022/01/20 00:34:12;;;;;;;4.43;3.57;;;;;;;4.81;61.70;96126.31;5021390;28;20202;-81
2022/01/20 00:39:24;;;;;;;3.40;3.10;;;;;;;4.78;61.81;96132.47;5021178;28;20285;-81
2022/01/20 00:41:51;;;;;;;3.60;3.20;;;;;;;4.81;61.68;96131.41;5020765;28;20250;-81
2022/01/20 00:44:17;;;;;;;3.60;3.30;;;;;;;4.87;61.37;96125.78;5020450;28;20202;-82
2022/01/20 00:46:44;;;;;;;3.73;3.10;;;;;;;4.75;61.89;96134.47;5020439;28;20452;-81
2022/01/20 00:49:10;;;;;;;3.30;3.00;;;;;;;4.62;62.40;96132.09;5019949;28;20203;-81
2022/01/20 00:51:37;;;;;;;3.20;2.87;;;;;;;4.63;62.58;96127.81;5019604;28;20230;-81
2022/01/20 00:54:03;;;;;;;3.80;2.97;;;;;;;4.69;61.68;96125.56;5020871;28;20203;-81
2022/01/20 00:56:31;;;;;;;4.60;3.43;;;;;;;4.68;62.00;96131.63;5020453;28;20234;-81
2022/01/20 00:58:58;;;;;;;3.60;3.00;;;;;;;4.76;61.75;96124.16;5020934;28;20222;-81
2022/01/20 01:01:25;;;;;;;3.93;3.37;;;;;;;4.72;61.86;96121.97;5020918;28;20310;-81
2022/01/20 01:03:51;;;;;;;4.20;3.37;;;;;;;4.71;61.87;96123.72;5019588;28;20207;-81
2022/01/20 01:06:31;;;;;;;3.90;3.17;;;;;;;4.84;61.60;96129.41;5020305;28;20265;-81
2022/01/20 01:08:57;;;;;;;3.20;2.90;;;;;;;4.92;60.86;96130.50;5020743;28;20217;-81
2022/01/20 01:11:25;;;;;;;3.80;3.20;;;;;;;4.75;61.47;96139.56;5021622;28;20700;-81
2022/01/20 01:13:53;;;;;;;3.30;3.00;;;;;;;4.73;61.12;96126.94;5021626;28;20262;-81
2022/01/20 01:16:23;;;;;;;4.93;3.23;;;;;;;4.73;61.46;96134.59;5019392;28;20238;-81
2022/01/20 01:21:43;;;;;;;3.10;2.70;;;;;;;4.73;61.58;96137.16;5021306;28;20653;-82
2022/01/20 01:24:11;;;;;;;3.47;3.13;;;;;;;4.81;61.34;96142.41;5020628;28;20242;-82
2022/01/20 01:26:38;;;;;;;3.20;2.90;;;;;;;4.80;61.43;96140.81;5019430;28;20245;-81
2022/01/20 01:29:17;;;;;;;5.20;3.10;;;;;;;4.88;61.11;96147.81;5019797;28;20717;-81
2022/01/20 01:31:43;;;;;;;3.67;3.37;;;;;;;4.80;61.18;96140.81;5020869;28;20223;-81
2022/01/20 01:34:13;;;;;;;3.57;3.10;;;;;;;4.75;61.47;96144.69;5019930;28;20605;-81
2022/01/20 01:37:03;;;;;;;3.77;3.27;;;;;;;4.69;61.89;96140.06;5017756;28;20226;-81
2022/01/20 01:39:29;;;;;;;3.20;2.87;;;;;;;4.71;61.70;96133.09;5018561;28;20734;-81
2022/01/20 01:41:56;;;;;;;3.33;2.83;;;;;;;4.81;61.41;96126.31;5018473;28;20431;-81
2022/01/20 01:44:27;;;;;;;3.20;2.90;;;;;;;4.70;61.64;96141.69;5018091;28;20206;-81
2022/01/20 01:46:55;;;;;;;3.13;2.73;;;;;;;4.64;62.03;96129.44;5018190;28;20602;-82
2022/01/20 01:49:22;;;;;;;3.30;3.00;;;;;;;4.65;61.96;96131.84;5017753;28;20207;-82
2022/01/20 01:51:48;;;;;;;3.13;2.80;;;;;;;4.65;61.89;96131.84;5018331;28;20234;-81
2022/01/20 01:54:17;;;;;;;3.20;2.90;;;;;;;4.70;61.74;96122.09;5018371;28;20678;-81
2022/01/20 01:56:44;;;;;;;3.90;2.90;;;;;;;4.73;61.62;96121.84;5017100;28;20239;-81
2022/01/20 01:59:11;;;;;;;3.17;2.83;;;;;;;4.81;61.61;96111.78;5018027;28;20222;-81
2022/01/20 02:01:40;;;;;;;3.83;3.13;;;;;;;4.72;61.85;96111.75;5018002;28;20230;-81
2022/01/20 02:04:15;;;;;;;3.47;3.03;;;;;;;4.66;62.23;96109.72;5017932;28;20210;-81
2022/01/20 02:07:12;;;;;;;3.13;2.83;;;;;;;4.76;62.03;96111.38;5017232;28;20221;-81
2022/01/20 02:17:50;;;;;;;3.20;2.83;;;;;;;4.84;61.24;96118.38;5017123;28;20206;-81
2022/01/20 02:18:23;;;;;;;3.37;3.07;;;;;;;4.78;61.68;96113.81;5016441;28;20230;-81
2022/01/20 02:20:51;;;;;;;3.13;2.83;;;;;;;4.86;61.51;96113.97;5018013;28;20226;-81
2022/01/20 02:23:18;;;;;;;3.23;2.63;;;;;;;4.83;61.69;96115.03;5017224;28;20225;-81
2022/01/20 02:25:45;;;;;;;3.43;2.80;;;;;;;4.83;61.88;96111.66;5018085;28;20397;-81
2022/01/20 02:28:13;;;;;;;3.10;2.80;;;;;;;4.75;63.20;96098.75;5017198;28;20202;-82
2022/01/20 02:30:42;;;;;;;4.07;3.00;;;;;;;4.72;63.51;96104.94;5016174;28;20210;-81
2022/01/20 02:33:13;;;;;;;3.03;2.60;;;;;;;4.69;64.20;96097.53;5017549;28;20257;-81
2022/01/20 02:35:43;;;;;;;3.53;3.00;;;;;;;4.65;64.44;96108.91;5017489;28;20207;-81
2022/01/20 02:38:15;;;;;;;3.60;3.13;;;;;;;4.60;64.33;96100.03;5017655;28;20211;-81
2022/01/20 02:46:11;;;;;;;3.37;2.70;;;;;;;4.51;64.42;96102.41;5016729;28;20292;-81
2022/01/20 02:48:38;;;;;;;3.10;2.80;;;;;;;4.51;64.59;96091.41;5016828;28;20718;-82
2022/01/20 02:51:05;;;;;;;4.17;3.17;;;;;;;4.40;65.26;96084.66;5016274;28;20221;-81
2022/01/20 02:53:32;;;;;;;3.10;2.80;;;;;;;4.43;65.80;96088.66;5016905;28;20209;-82
2022/01/20 02:55:59;;;;;;;3.20;2.90;;;;;;;4.37;66.31;96072.16;5015520;28;20246;-81
2022/01/20 02:58:25;;;;;;;3.70;2.90;;;;;;;4.26;67.41;96072.19;5017232;28;20207;-82
2022/01/20 03:00:53;;;;;;;3.27;2.97;;;;;;;4.20;67.87;96074.47;5017081;28;20227;-82
2022/01/20 03:03:19;;;;;;;3.73;2.87;;;;;;;4.20;67.63;96069.38;5017549;28;20273;-81
2022/01/20 03:05:46;;;;;;;3.13;2.83;;;;;;;4.30;67.35;96073.56;5017292;28;20266;-81
2022/01/20 03:08:12;;;;;;;3.23;2.93;;;;;;;4.38;66.81;96066.13;5016971;28;20202;-81
2022/01/20 03:10:40;;;;;;;3.07;2.77;;;;;;;4.25;66.95;96068.03;5016713;28;20207;-81
2022/01/20 03:13:07;;;;;;;3.03;2.73;;;;;;;4.24;66.77;96063.88;5018228;28;20226;-81
2022/01/20 03:15:35;;;;;;;3.60;2.87;;;;;;;4.28;67.15;96061.88;5018041;28;20198;-80
2022/01/20 03:18:02;;;;;;;3.13;2.70;;;;;;;4.27;67.41;96057.72;5018330;28;20210;-81
2022/01/20 03:20:28;;;;;;;3.77;3.07;;;;;;;4.33;67.64;96068.22;5019801;28;20233;-82
2022/01/20 03:22:55;;;;;;;3.30;2.97;;;;;;;4.26;67.71;96062.00;5022226;28;20309;-81
2022/01/20 03:25:21;;;;;;;4.00;2.90;;;;;;;4.35;67.60;96058.72;5022872;28;20221;-81
2022/01/20 03:27:49;;;;;;;3.83;2.70;;;;;;;4.45;67.89;96062.09;5021609;28;20238;-81
2022/01/20 03:30:16;;;;;;;3.23;2.90;;;;;;;4.35;67.96;96065.56;5022672;28;20209;-82
2022/01/20 03:32:42;;;;;;;3.67;3.00;;;;;;;4.25;68.48;96067.22;5025239;28;20223;-81
2022/01/20 03:35:09;;;;;;;2.90;2.60;;;;;;;4.27;69.44;96078.09;5022441;28;20214;-82
2022/01/20 03:37:35;;;;;;;3.03;2.60;;;;;;;4.30;70.75;96086.31;5022662;28;20234;-81
2022/01/20 03:40:03;;;;;;;3.10;2.80;;;;;;;4.18;71.73;96077.13;5022621;28;20230;-82
2022/01/20 03:42:29;;;;;;;3.37;3.07;;;;;;;4.17;72.36;96085.72;5022216;28;20219;-82
2022/01/20 03:44:57;;;;;;;2.93;2.73;;;;;;;4.07;74.01;96090.72;5023006;28;20210;-82
2022/01/20 03:47:25;;;;;;;3.27;2.93;;;;;;;4.15;74.05;96083.28;5022448;28;20238;-82
2022/01/20 03:49:55;;;;;;;3.30;2.90;;;;;;;4.07;74.28;96087.38;5022287;28;20263;-81
2022/01/20 03:52:22;;;;;;;3.30;3.00;;;;;;;4.11;74.68;96091.28;5022273;28;20273;-81
2022/01/20 03:54:48;;;;;;;4.23;2.90;;;;;;;4.06;75.13;96106.13;5023073;28;20210;-82
2022/01/20 03:57:15;;;;;;;3.67;3.30;;;;;;;4.02;76.24;96103.06;5021648;28;20762;-82
2022/01/20 03:59:41;;;;;;;3.20;2.90;;;;;;;3.89;77.89;96114.31;5022272;28;20223;-81
2022/01/20 04:02:09;;;;;;;3.60;3.30;;;;;;;3.71;80.16;96107.22;5021245;28;20226;-81
2022/01/20 04:04:35;;;;;;;3.50;3.07;;;;;;;3.70;80.96;96110.69;5021515;28;20592;-81
2022/01/20 04:07:03;;;;;;;3.27;2.97;;;;;;;3.71;81.25;96106.41;5021125;28;20227;-81
2022/01/20 04:09:29;;;;;;;3.40;3.10;;;;;;;3.73;81.40;96109.66;5021097;28;20203;-81
2022/01/20 04:11:55;;;;;;;3.40;3.10;;;;;;;3.73;81.90;96110.47;5020577;28;20222;-81
2022/01/20 04:14:24;;;;;;;3.07;2.77;;;;;;;3.64;82.64;96102.75;5021307;28;20203;-81
2022/01/20 04:17:01;;;;;;;3.97;3.40;;;;;;;3.72;82.44;96113.94;5020476;28;20296;-81
2022/01/20 04:19:30;;;;;;;3.30;3.00;;;;;;;3.69;82.47;96108.28;5020707;28;20206;-81
2022/01/20 04:21:58;;;;;;;3.67;3.37;;;;;;;3.70;82.86;96114.97;5020796;28;20223;-81
2022/01/20 04:24:24;;;;;;;3.10;2.80;;;;;;;3.61;83.66;96105.53;5020508;28;20202;-81
2022/01/20 04:26:51;;;;;;;3.10;2.80;;;;;;;3.62;83.94;96104.59;5019713;28;20235;-81
2022/01/20 04:29:18;;;;;;;3.53;3.20;;;;;;;3.52;84.82;96101.97;5018727;28;20470;-81
2022/01/20 04:31:46;;;;;;;3.80;3.10;;;;;;;3.57;85.09;96110.06;5018983;28;20234;-81
2022/01/20 04:34:13;;;;;;;3.80;3.40;;;;;;;3.41;86.19;96099.47;5018944;28;20741;-81
2022/01/20 04:36:44;;;;;;;3.37;3.07;;;;;;;3.37;86.98;96091.25;5019061;28;20223;-81
2022/01/20 04:39:14;;;;;;;3.50;3.03;;;;;;;3.47;87.01;96093.88;5020573;28;20253;-81
2022/01/20 04:41:41;;;;;;;3.33;2.60;;;;;;;3.20;88.97;96093.50;5018672;28;20285;-81
2022/01/20 04:44:13;;;;;;;3.80;2.97;;;;;;;3.23;89.21;96098.34;5019364;28;20232;-81
2022/01/20 04:46:45;;;;;;;3.33;3.03;;;;;;;3.22;89.99;96094.19;5018257;28;20653;-81
2022/01/20 04:57:02;;;;;;;3.43;3.13;;;;;;;3.23;89.20;96095.81;5018157;28;20266;-81
2022/01/20 04:57:29;;;;;;;4.17;3.37;;;;;;;3.21;90.07;96103.56;5016974;28;20237;-81
2022/01/20 04:59:56;;;;;;;4.53;3.30;;;;;;;3.28;89.87;96103.88;5017453;28;20214;-81
2022/01/20 05:02:26;;;;;;;3.77;3.33;;;;;;;3.30;89.85;96104.56;5016410;28;20222;-81
2022/01/20 05:04:53;;;;;;;3.60;3.27;;;;;;;3.22;90.06;96099.28;5017941;28;20211;-81
2022/01/20 05:07:24;;;;;;;4.57;3.73;;;;;;;3.31;89.86;96103.63;5016373;28;20230;-81
2022/01/20 05:09:53;;;;;;;4.97;3.67;;;;;;;3.26;90.10;96106.56;5017731;28;20354;-81
2022/01/20 05:12:25;;;;;;;4.80;3.60;;;;;;;3.27;90.20;96097.97;5017404;28;20314;-81
2022/01/20 05:14:52;;;;;;;4.60;3.50;;;;;;;3.32;90.30;96093.34;5017501;28;20268;-81
2022/01/20 05:17:18;;;;;;;4.70;3.30;;;;;;;3.28;90.09;96103.88;5017062;28;20741;-81
2022/01/20 05:19:45;;;;;;;4.90;4.20;;;;;;;3.31;90.45;96099.34;5017275;28;20199;-82
2022/01/20 05:22:11;;;;;;;5.07;4.00;;;;;;;3.39;89.83;96096.22;5017917;28;20235;-81
2022/01/20 05:24:39;;;;;;;6.00;4.20;;;;;;;3.33;90.21;96101.78;5017885;28;20207;-81
2022/01/20 05:27:05;;;;;;;5.17;4.30;;;;;;;3.36;90.21;96092.19;5017351;28;20311;-81
2022/01/20 05:29:32;;;;;;;4.50;4.10;;;;;;;3.36;90.62;96099.81;5017154;28;20203;-81
2022/01/20 05:31:58;;;;;;;5.73;4.10;;;;;;;3.40;90.59;96095.31;5016913;28;20629;-81
2022/01/20 05:34:25;;;;;;;7.93;4.80;;;;;;;3.45;90.33;96095.75;5017857;28;20209;-81
2022/01/20 05:36:52;;;;;;;6.30;4.10;;;;;;;3.48;90.29;96090.41;5016607;28;20234;-81
2022/01/20 05:39:18;;;;;;;5.70;4.47;;;;;;;3.46;90.24;96087.19;5017023;28;20198;-81
2022/01/20 05:41:46;;;;;;;4.50;4.10;;;;;;;3.51;90.36;96089.34;5016646;28;20230;-81
2022/01/20 05:44:13;;;;;;;5.03;4.53;;;;;;;3.38;90.42;96089.53;5017723;28;20581;-81
2022/01/20 05:46:44;;;;;;;4.97;4.37;;;;;;;3.42;91.15;96088.34;5015551;28;20249;-81
2022/01/20 05:49:11;;;;;;;5.80;4.53;;;;;;;3.43;90.89;96095.88;5014763;28;20199;-81
2022/01/20 05:51:38;;;;;;;4.67;4.17;;;;;;;3.45;89.90;96088.13;5016375;28;20243;-80
2022/01/20 05:54:05;;;;;;;5.70;4.60;;;;;;;3.47;90.79;96081.16;5012776;28;20199;-81
2022/01/20 05:56:32;;;;;;;4.93;4.40;;;;;;;3.43;90.69;96092.53;5013158;28;20226;-81
2022/01/20 05:59:00;;;;;;;5.70;4.70;;;;;;;3.49;90.59;96094.56;5017568;28;20203;-81
2022/01/20 06:01:27;;;;;;;6.90;4.70;;;;;;;3.49;89.80;96099.66;5021446;28;20231;-80
2022/01/20 06:03:54;;;;;;;5.40;4.57;;;;;;;3.59;89.40;96099.75;5018264;28;20202;-81
2022/01/20 06:06:21;;;;;;;5.50;4.80;;;;;;;3.65;88.94;96096.72;5017165;28;20230;-81
2022/01/20 06:08:48;;;;;;;4.27;3.87;;;;;;;3.50;89.88;96090.28;5017163;28;20233;-81
2022/01/20 06:11:15;;;;;;;4.43;3.90;;;;;;;3.58;89.03;96096.41;5018417;28;20198;-81
2022/01/20 06:13:41;;;;;;;6.43;4.70;;;;;;;3.56;89.29;96098.25;5017905;28;20207;-81
2022/01/20 06:16:09;;;;;;;5.20;4.70;;;;;;;3.52;90.01;96103.69;5029004;28;20309;-81
2022/01/20 06:18:36;;;;;;;5.10;4.10;;;;;;;3.37;90.77;96098.88;5024597;28;20202;-81
2022/01/20 06:21:02;;;;;;;5.23;4.47;;;;;;;3.43;90.74;96095.06;5017758;28;20223;-81
2022/01/20 06:23:29;;;;;;;4.97;4.23;;;;;;;3.47;89.93;96107.41;5028853;28;20264;-81
2022/01/20 06:25:56;;;;;;;5.33;4.80;;;;;;;3.50;90.04;96114.00;5033991;28;20233;-81
2022/01/20 06:28:23;;;;;;;5.20;4.23;;;;;;;3.50;89.58;96111.47;5016664;28;20695;-81
2022/01/20 06:30:50;;;;;;;4.40;3.97;;;;;;;3.50;89.63;96106.38;5017049;28;20206;-81
2022/01/20 06:33:18;;;;;;;4.67;4.17;;;;;;;3.52;89.32;96112.16;5016641;28;20249;-81
2022/01/20 06:35:44;;;;;;;4.83;4.20;;;;;;;3.59;88.62;96113.28;5015253;28;20203;-81
2022/01/20 06:38:11;;;;;;;9.93;7.57;;;;;;;3.57;88.27;96102.41;5015361;28;20199;-81
2022/01/20 06:40:38;;;;;;;5.03;4.40;;;;;;;3.64;88.03;96100.22;5015723;28;20230;-81
2022/01/20 06:43:05;;;;;;;5.87;4.13;;;;;;;3.56;87.79;96097.44;5015121;28;20222;-81
2022/01/20 06:45:32;;;;;;;4.23;3.83;;;;;;;3.50;88.38;96100.47;5015255;28;20206;-81
2022/01/20 06:47:59;;;;;;;4.63;3.90;;;;;;;3.60;88.16;96104.72;5014951;28;20237;-81
2022/01/20 06:50:27;;;;;;;4.20;3.80;;;;;;;3.60;86.71;96091.19;5015708;28;20203;-81
2022/01/20 06:52:54;;;;;;;4.20;3.80;;;;;;;3.60;86.43;96092.00;5016009;28;20238;-81
2022/01/20 06:55:21;;;;;;;4.60;4.10;;;;;;;3.61;86.88;96083.44;5016531;28;20199;-81
2022/01/20 06:57:48;;;;;;;4.27;3.87;;;;;;;3.62;86.57;96091.88;5017070;28;20229;-81
2022/01/20 07:00:17;;;;;;;4.53;3.73;;;;;;;3.65;86.84;96099.28;5019754;28;20202;-81
2022/01/20 07:02:45;;;;;;;3.87;3.53;;;;;;;3.72;86.49;96093.56;5021279;28;20222;-81
2022/01/20 07:05:12;;;;;;;3.80;3.40;;;;;;;3.61;86.11;96090.25;5020277;28;20218;-81
2022/01/20 07:07:40;;;;;;;4.27;3.83;;;;;;;3.66;85.81;96101.69;5018571;28;20233;-81
2022/01/20 07:10:09;;;;;;;3.87;3.53;;;;;;;3.70;85.63;96103.06;5018299;28;20206;-81
2022/01/20 07:12:36;;;;;;;4.00;3.60;;;;;;;3.68;85.69;96101.56;5018884;28;20239;-81
2022/01/20 07:15:03;;;;;;;3.80;3.40;;;;;;;3.70;85.53;96099.69;5018584;28;20214;-81
2022/01/20 07:17:29;;;;;;;3.93;3.53;;;;;;;3.68;84.66;96101.56;5017044;28;20241;-81
2022/01/20 07:19:55;;;;;;;8.87;6.50;;;;;;;3.57;85.54;96101.59;5017728;28;20202;-81
2022/01/20 07:22:22;;;;;;;3.90;3.50;;;;;;;3.59;85.80;96107.38;5017044;28;20230;-81
2022/01/20 07:24:50;;;;;;;3.90;3.50;;;;;;;3.67;84.97;96105.84;5018244;28;20626;-81
2022/01/20 07:27:17;;;;;;;5.30;3.60;;;;;;;3.72;85.25;96106.28;5018573;28;20234;-81
2022/01/20 07:29:43;;;;;;;7.00;3.70;;;;;;;3.81;84.56;96103.03;5017755;28;20599;-81
2022/01/20 07:32:10;;;;;;;4.00;3.60;;;;;;;3.79;84.27;96109.16;5017502;28;20233;-81
2022/01/20 07:34:36;;;;;;;4.10;3.70;;;;;;;3.83;84.42;96112.28;5018216;28;20198;-81
2022/01/20 07:37:05;;;;;;;3.80;3.40;;;;;;;3.81;83.83;96117.50;5017864;28;20237;-81
2022/01/20 07:39:31;;;;;;;3.37;3.07;;;;;;;3.74;83.93;96118.91;5019176;28;20203;-81
2022/01/20 07:42:00;;;;;;;4.00;3.60;;;;;;;3.73;84.25;96120.66;5019296;28;20230;-81
2022/01/20 07:44:26;;;;;;;4.07;3.67;;;;;;;3.72;84.32;96118.22;5018752;28;20199;-81
2022/01/20 07:46:53;;;;;;;3.63;3.33;;;;;;;3.73;84.51;96122.38;5018074;28;20711;-81
2022/01/20 07:49:19;;;;;;;4.20;3.60;;;;;;;3.75;84.02;96123.06;5008846;28;20207;-81
2022/01/20 07:51:46;;;;;;;3.80;3.50;;;;;;;3.83;83.66;96120.75;4998313;28;20223;-81
2022/01/20 07:54:12;;;;;;;6.03;3.40;;;;;;;3.84;83.97;96127.44;4999094;28;20211;-81
2022/01/20 07:56:39;;;;;;;3.93;3.60;;;;;;;3.84;83.37;96126.66;5016718;28;20238;-81
2022/01/20 07:59:08;;;;;;;3.77;3.47;;;;;;;3.87;84.05;96124.63;5019493;28;20206;-81
2022/01/20 08:01:34;;;;;;;3.53;3.20;;;;;;;3.81;83.71;96133.59;5018600;28;20265;-81
2022/01/20 08:04:01;;;;;;;3.63;3.33;;;;;;;3.83;83.94;96141.13;5018694;28;20211;-82
2022/01/20 08:06:28;;;;;;;4.13;3.47;;;;;;;3.84;84.63;96147.03;5018509;28;20234;-81
2022/01/20 08:08:54;;;;;;;4.93;3.53;;;;;;;3.74;84.59;96150.28;5017421;28;20198;-81
2022/01/20 08:11:22;;;;;;;4.10;3.07;;;;;;;3.73;84.78;96150.41;5019307;28;20199;-81
2022/01/20 08:13:48;;;;;;;3.23;2.90;;;;;;;3.79;84.50;96143.09;5019391;28;20210;-81
2022/01/20 08:16:16;;;;;;;3.43;3.07;;;;;;;3.82;84.41;96147.13;5018404;28;20730;-81
2022/01/20 08:18:43;;;;;;;5.47;3.20;;;;;;;3.97;84.16;96155.28;5018871;28;20590;-81
2022/01/20 08:21:09;;;;;;;3.83;3.47;;;;;;;4.05;83.58;96147.84;5019243;28;20219;-81
2022/01/20 08:23:35;;;;;;;3.90;3.33;;;;;;;3.95;83.71;96154.59;5018221;28;20568;-81
2022/01/20 08:26:02;;;;;;;4.10;3.10;;;;;;;3.91;83.97;96148.13;5010352;28;20310;-82
2022/01/20 08:28:29;;;;;;;4.00;3.40;;;;;;;3.95;83.49;96155.41;5016528;28;20291;-82
2022/01/20 08:30:55;;;;;;;3.53;3.23;;;;;;;3.93;83.65;96151.38;5017379;28;20198;-82
2022/01/20 08:33:23;;;;;;;3.30;3.00;;;;;;;3.93;83.42;96149.63;5017859;28;20234;-82
2022/01/20 08:35:50;;;;;;;3.27;2.97;;;;;;;3.86;83.87;96155.31;5017377;28;20205;-82
2022/01/20 08:38:16;;;;;;;3.20;2.83;;;;;;;3.87;84.30;96164.56;5016873;28;20218;-82
2022/01/20 08:40:45;;;;;;;3.17;2.87;;;;;;;3.85;84.08;96163.91;5017839;28;20867;-82
2022/01/20 08:43:12;;;;;;;3.17;2.87;;;;;;;3.82;84.55;96164.97;5022652;28;20218;-82
2022/01/20 08:45:39;;;;;;;3.40;2.80;;;;;;;3.87;84.16;96165.38;5024332;28;20222;-82
2022/01/20 08:48:08;;;;;;;2.90;2.70;;;;;;;3.93;83.83;96169.19;5018400;28;20210;-82
2022/01/20 08:50:37;;;;;;;3.00;2.63;;;;;;;3.87;84.19;96169.69;5018335;28;20226;-82
2022/01/20 08:53:03;;;;;;;3.20;2.90;;;;;;;3.82;84.96;96185.34;5018233;28;20265;-82
2022/01/20 08:55:30;;;;;;;6.07;2.77;;;;;;;3.79;85.49;96185.56;5035260;28;20202;-82
2022/01/20 08:57:58;;;;;;;3.27;2.97;;;;;;;3.81;86.01;96183.72;5037689;28;20240;-82
2022/01/20 09:00:27;;;;;;;4.40;2.70;;;;;;;3.77;86.02;96200.97;5032686;28;20214;-82
2022/01/20 09:02:54;;;;;;;2.87;2.67;;;;;;;3.80;86.08;96210.94;5018178;28;20226;-82
2022/01/20 09:05:21;;;;;;;3.13;2.83;;;;;;;3.81;85.73;96197.28;5018835;28;20209;-82
2022/01/20 09:07:48;;;;;;;3.23;2.93;;;;;;;3.81;85.88;96201.56;5017682;28;20246;-82
2022/01/20 09:10:19;;;;;;;2.90;2.60;;;;;;;3.75;85.75;96199.47;5017132;28;20210;-82
2022/01/20 09:15:31;;;;;;;3.30;3.00;;;;;;;3.77;85.44;96180.59;5018038;28;20202;-82
2022/01/20 09:18:00;;;;;;;3.50;3.20;;;;;;;3.80;85.15;96187.19;5017107;28;20234;-82
2022/01/20 09:20:28;;;;;;;3.87;3.13;;;;;;;3.85;85.47;96190.16;5017283;28;20203;-82
2022/01/20 09:22:55;;;;;;;2.87;2.67;;;;;;;3.87;85.72;96192.59;5017299;28;20227;-82
2022/01/20 09:25:23;;;;;;;3.60;2.80;;;;;;;3.92;86.17;96198.97;5018466;28;20211;-82
2022/01/20 09:27:51;;;;;;;3.33;2.80;;;;;;;3.86;86.46;96203.72;5017072;28;20316;-81
2022/01/20 09:30:21;;;;;;;4.00;2.77;;;;;;;3.90;85.80;96208.47;5018278;28;20273;-82
2022/01/20 09:32:57;;;;;;;3.57;3.00;;;;;;;3.93;86.04;96209.97;5016722;28;20233;-82
2022/01/20 09:35:26;;;;;;;3.40;3.10;;;;;;;3.92;85.94;96209.16;5017337;28;20210;-82
2022/01/20 09:37:53;;;;;;;3.00;2.70;;;;;;;3.93;85.72;96208.22;5017341;28;20241;-82
2022/01/20 09:40:21;;;;;;;3.67;2.93;;;;;;;4.09;85.77;96218.81;5017782;28;20199;-82
2022/01/20 09:42:47;;;;;;;4.43;2.87;;;;;;;4.05;84.44;96221.72;5017927;28;20230;-82
2022/01/20 09:45:15;;;;;;;3.13;2.83;;;;;;;4.09;84.51;96218.81;5017359;28;20712;-82
2022/01/20 09:47:43;;;;;;;2.93;2.63;;;;;;;4.27;83.45;96220.84;5016808;28;20257;-82
2022/01/20 09:50:11;;;;;;;3.00;2.70;;;;;;;4.31;81.66;96219.66;5018444;28;20195;-82
2022/01/20 09:52:37;;;;;;;3.77;3.07;;;;;;;4.55;80.63;96206.69;5016606;28;20226;-82
2022/01/20 09:55:04;;;;;;;3.20;2.90;;;;;;;4.67;79.90;96196.31;5017376;28;20207;-82
2022/01/20 09:57:32;;;;;;;2.80;2.60;;;;;;;4.76;78.90;96198.13;5016010;28;20234;-82
2022/01/20 10:00:00;;;;;;;3.00;2.70;;;;;;;4.56;78.19;96196.38;5016466;28;20567;-82
2022/01/20 10:02:26;;;;;;;2.70;2.50;;;;;;;4.47;79.39;96212.41;5015639;28;20262;-81
2022/01/20 10:04:55;;;;;;;3.00;2.70;;;;;;;4.35;79.01;96219.31;5016463;28;20214;-82
2022/01/20 10:07:22;;;;;;;3.57;3.07;;;;;;;4.31;79.42;96217.94;5015791;28;20700;-81
2022/01/20 10:09:49;;;;;;;2.93;2.70;;;;;;;4.37;79.59;96214.09;5000581;28;20207;-81
2022/01/20 10:12:18;;;;;;;3.30;3.00;;;;;;;4.42;79.08;96235.75;5006810;28;20215;-82
2022/01/20 10:14:49;;;;;;;3.53;2.73;;;;;;;4.45;79.00;96225.28;5017083;28;20245;-82
2022/01/20 10:17:18;;;;;;;4.23;2.80;;;;;;;4.35;78.63;96221.84;5015714;28;20819;-81
2022/01/20 10:19:45;;;;;;;3.00;2.70;;;;;;;4.32;79.03;96224.66;5015725;28;20218;-82
2022/01/20 10:22:14;;;;;;;3.50;3.20;;;;;;;4.35;79.41;96224.41;5016353;28;20227;-82
2022/01/20 10:24:40;;;;;;;4.27;2.80;;;;;;;4.27;79.53;96220.84;5016567;28;20207;-81
2022/01/20 10:27:12;;;;;;;4.40;2.80;;;;;;;4.24;79.82;96219.34;5014833;28;20234;-81
2022/01/20 10:29:38;;;;;;;3.43;3.13;;;;;;;4.30;80.37;96223.16;5015312;28;20578;-81
2022/01/20 10:32:07;;;;;;;3.53;2.93;;;;;;;4.34;80.47;96215.16;5014236;28;20226;-81
2022/01/20 10:34:37;;;;;;;3.50;3.20;;;;;;;4.46;80.08;96209.03;5014384;28;20209;-81
2022/01/20 10:37:07;;;;;;;4.37;3.20;;;;;;;4.51;79.90;96201.84;5018439;28;20874;-81
2022/01/20 10:39:37;;;;;;;3.47;3.17;;;;;;;4.55;79.60;96191.41;5018480;28;20218;-81
2022/01/20 10:42:06;;;;;;;3.50;3.20;;;;;;;4.51;79.41;96203.59;5017716;28;20226;-81
2022/01/20 10:44:44;;;;;;;3.20;2.90;;;;;;;4.53;79.65;96219.56;5018196;28;20217;-81
2022/01/20 10:47:14;;;;;;;4.17;3.27;;;;;;;4.46;79.15;96203.13;5016215;28;20714;-81
2022/01/20 10:49:42;;;;;;;3.33;3.03;;;;;;;4.55;79.04;96204.16;5015750;28;20221;-82
2022/01/20 10:52:10;;;;;;;3.00;2.80;;;;;;;4.73;77.87;96202.66;5015115;28;20253;-82
2022/01/20 10:54:42;;;;;;;3.50;3.20;;;;;;;4.76;76.70;96189.66;5014472;28;20206;-82
2022/01/20 10:57:11;;;;;;;3.03;2.80;;;;;;;4.88;75.96;96196.28;5014262;28;20230;-82
2022/01/20 10:59:49;;;;;;;23.87;16.93;;;;;;;5.18;76.26;96192.97;5014897;28;20199;-82
2022/01/20 11:02:19;;;;;;;6.00;5.33;;;;;;;5.52;74.46;96191.72;5011355;28;20634;-82
2022/01/20 11:04:46;;;;;;;3.73;2.80;;;;;;;5.66;72.62;96192.28;5015214;28;20234;-82
2022/01/20 11:07:13;;;;;;;4.20;2.70;;;;;;;5.49;72.07;96188.63;5014294;28;20241;-82
2022/01/20 11:09:42;;;;;;;3.83;2.80;;;;;;;5.42;71.94;96195.16;5015284;28;20930;-82
2022/01/20 11:12:11;;;;;;;3.17;2.87;;;;;;;5.33;72.63;96194.22;5015496;28;20231;-82
2022/01/20 11:14:38;;;;;;;2.87;2.67;;;;;;;5.34;72.75;96187.38;5015784;28;20203;-82
2022/01/20 11:17:05;;;;;;;3.20;2.90;;;;;;;5.33;72.80;96185.75;5015207;28;20254;-82
2022/01/20 11:19:37;;;;;;;5.70;2.83;;;;;;;5.47;72.02;96185.38;5014130;28;20203;-82
2022/01/20 11:22:08;;;;;;;2.60;2.40;;;;;;;5.58;70.92;96198.03;5017841;28;20238;-82
2022/01/20 11:24:36;;;;;;;8.47;7.00;;;;;;;5.67;71.02;96188.78;5020343;28;20495;-82
2022/01/20 11:27:04;;;;;;;4.97;4.43;;;;;;;5.74;70.83;96177.13;5015916;28;20743;-82
2022/01/20 11:29:45;;;;;;;2.93;2.40;;;;;;;5.51;70.40;96173.97;5014965;28;20207;-82
2022/01/20 11:32:21;;;;;;;3.17;2.50;;;;;;;5.37;70.69;96167.50;5014398;28;20232;-82
2022/01/20 11:35:01;;;;;;;3.07;2.77;;;;;;;5.33;71.44;96163.56;5014588;28;20206;-82
2022/01/20 11:37:29;;;;;;;2.47;2.27;;;;;;;5.28;71.04;96162.34;5015073;28;20703;-82
2022/01/20 11:40:09;;;;;;;3.23;2.80;;;;;;;5.16;71.31;96162.44;5014991;28;20199;-82
2022/01/20 11:42:35;;;;;;;2.90;2.60;;;;;;;5.17;70.81;96161.53;5017256;28;20234;-81
2022/01/20 11:45:21;;;;;;;3.50;2.50;;;;;;;5.35;70.51;96150.69;5018755;28;20215;-81
2022/01/20 11:47:48;;;;;;;5.77;2.20;;;;;;;5.69;69.04;96146.03;5018288;28;20234;-82
2022/01/20 11:50:18;;;;;;;2.57;2.37;;;;;;;5.83;69.37;96150.75;5017723;28;20203;-83
2022/01/20 11:52:44;;;;;;;4.10;2.57;;;;;;;5.89;70.55;96152.81;5019021;28;20234;-83
2022/01/20 11:55:12;;;;;;;2.53;2.33;;;;;;;5.95;69.79;96136.97;5019932;28;20210;-83
2022/01/20 11:57:39;;;;;;;2.27;2.00;;;;;;;6.03;69.83;96141.38;5020059;28;20231;-84
2022/01/20 12:00:20;;;;;;;3.63;2.40;;;;;;;5.87;69.81;96127.38;5019618;28;20214;-83
2022/01/20 12:02:47;;;;;;;3.30;2.40;;;;;;;5.80;69.76;96141.59;5019297;28;20703;-83
2022/01/20 12:05:25;;;;;;;3.43;2.30;;;;;;;5.75;70.08;96145.53;5018675;28;20206;-83
2022/01/20 12:07:52;;;;;;;4.07;2.30;;;;;;;5.91;70.87;96142.47;5017138;28;20234;-84
2022/01/20 12:10:25;;;;;;;3.00;2.30;;;;;;;5.90;69.99;96146.78;5016488;28;20202;-83
2022/01/20 12:12:52;;;;;;;2.67;2.13;;;;;;;5.95;69.23;96138.72;5017694;28;20615;-83
2022/01/20 12:15:22;;;;;;;3.13;2.10;;;;;;;5.91;68.24;96145.84;5016963;28;20202;-83
2022/01/20 12:17:49;;;;;;;2.43;2.00;;;;;;;5.75;67.66;96125.91;5016472;28;20702;-83
2022/01/20 12:20:17;;;;;;;2.30;2.10;;;;;;;5.98;68.60;96126.44;5016640;28;20608;-84
2022/01/20 12:22:45;;;;;;;2.53;2.20;;;;;;;6.12;68.32;96097.94;5016730;28;20226;-83
2022/01/20 12:25:17;;;;;;;2.60;2.33;;;;;;;6.10;67.55;96114.34;5017099;28;20199;-83
2022/01/20 12:27:44;;;;;;;2.97;1.80;;;;;;;5.98;67.48;96111.13;5016842;28;20607;-81
2022/01/20 12:30:22;;;;;;;2.30;2.10;;;;;;;5.74;66.84;96110.69;5016405;28;20703;-82